Tropical Cyclones
[Index]
Main Index Home Page Stock Weather Photos Extreme Storms Discussion Storm News and Storm Chasing Reports Tropical Cyclones / Hurricanes / Typhoons Weather Data and Links Wild Fires / Bushfires Weather Observation Techniques Weather Picture Catalogue Tornado Pictures and Reports Stock Video Footage and DVDs for sale
Season 1980-1981 Tropical Cyclone PADDY Track Map
Season 1980-1981 Summaries: [BoM-AU] [JTWC-AU] [JTWC-SIO] [JTWC-SPAC] [JTWC-SH]
<<- Previous TC | BoM 1980-1981 Season | Next TC ->>

click for intensity scale information  Lat/long Grid: Show Hide

 Date Labels: Show Hide

Bureau of Meteorology Tropical Cyclone Data

Name: PADDY
Number: 621 / 198081_14

24 May 1981 03:00 UTC to 30 May 1981 00:00 UTC

    date/time    lat    long    hPa   cat  kts
1981-05-24 03    6.0    89.0   1004                     
1981-05-24 06    6.5    89.0   1001                     
1981-05-24 12    7.0    89.0    999                     
1981-05-24 18    8.5    89.3    997                     
1981-05-25 00    9.2    89.8    994    1                
1981-05-25 06   10.5    90.8    991    1                
1981-05-25 12   11.0    91.3    988    1                
1981-05-25 18   11.3    91.4    982    2                
1981-05-26 00   11.7    91.7    982    2                
1981-05-26 06   12.2    92.0    973    2                
1981-05-26 12   12.7    91.6    973    2                
1981-05-26 18   12.8    91.5    973    2                
1981-05-27 00   12.9    91.4    973    2                
1981-05-27 06   13.2    91.4    973    2                
1981-05-27 12   13.4    91.8    973    2                
1981-05-27 18   13.6    92.2    978    2                
1981-05-28 00   13.9    92.4    983    2                
1981-05-28 06   14.2    92.6    983    2                
1981-05-28 12   14.7    92.6    988    1                
1981-05-28 18   15.3    93.0    992    1                
1981-05-29 00   15.5    93.2    994    1                
1981-05-29 06   15.8    93.7   1000                     
1981-05-29 12   16.0    94.3   1001                     
1981-05-29 18   16.2    94.7   1002                     
1981-05-30 00   16.6    95.4   1003                     
Winds are 10-min average.

Tropical cyclone tracks developed by Michael Bath using data from the Bureau of Meteorology and Google Maps.


[Australian Severe Weather index] [Copyright Notice] [Email Contacts] [Search This Site] [Privacy Policy]
Document: tropical_cyclone_paddy.htm Updated: 30 May 2013